Time;durP1;ratioP1;P1;durP2;ratioP2;P2;SDS_P1;SDS_P2;PMS_P1;PMS_P2;Temp;Humidity;BMP_temperature;BMP_pressure;BME280_temperature;BME280_humidity;BME280_pressure;Samples;Min_cycle;Max_cycle;Signal;HPM_P1;HPM_P2
2021/05/22 00:00:23;;;;;;;;;;;20.10;61.70;;;;;;4997161;28;1899;-70
2021/05/22 00:02:48;;;;;;;;;;;20.00;60.90;;;;;;5014788;28;1140;-70
2021/05/22 00:05:14;;;;;;;;;;;20.00;60.90;;;;;;5014712;28;1057;-70
2021/05/22 00:07:39;;;;;;;;;;;20.00;60.90;;;;;;4997170;28;1234;-70
2021/05/22 00:10:06;;;;;;;;;;;20.00;61.00;;;;;;5014718;28;1084;-70
2021/05/22 00:12:31;;;;;;;;;;;20.00;61.00;;;;;;5014472;28;1092;-70
2021/05/22 00:14:57;;;;;;;;;;;20.00;61.00;;;;;;5014128;28;1170;-70
2021/05/22 00:17:22;;;;;;;;;;;20.00;61.00;;;;;;5014459;28;1211;-70
2021/05/22 00:19:48;;;;;;;;;;;20.00;61.00;;;;;;5014316;28;1902;-70
2021/05/22 00:22:13;;;;;;;;;;;20.00;61.10;;;;;;5014493;28;1164;-70
2021/05/22 00:24:39;;;;;;;;;;;20.00;61.00;;;;;;5014193;28;1072;-70
2021/05/22 00:27:04;;;;;;;;;;;20.00;61.10;;;;;;4996479;28;1351;-70
2021/05/22 00:29:30;;;;;;;;;;;20.00;61.10;;;;;;4997311;28;1097;-70
2021/05/22 00:31:55;;;;;;;;;;;20.00;61.10;;;;;;5014157;28;1128;-70
2021/05/22 00:34:20;;;;;;;;;;;20.00;61.10;;;;;;5014237;28;1093;-70
2021/05/22 00:36:46;;;;;;;;;;;20.00;61.10;;;;;;5014087;28;1056;-69
2021/05/22 00:39:11;;;;;;;;;;;20.00;61.10;;;;;;5014024;28;1898;-70
2021/05/22 00:41:37;;;;;;;;;;;20.00;61.10;;;;;;5013942;28;1184;-70
2021/05/22 00:44:03;;;;;;;;;;;20.00;61.20;;;;;;5013926;28;1084;-70
2021/05/22 00:46:28;;;;;;;;;;;20.00;61.60;;;;;;5013986;28;1135;-70
2021/05/22 00:48:53;;;;;;;;;;;19.90;61.10;;;;;;5013977;28;1207;-70
2021/05/22 00:51:19;;;;;;;;;;;20.00;61.20;;;;;;5013865;28;1140;-70
2021/05/22 00:53:44;;;;;;;;;;;20.00;61.30;;;;;;5014180;28;1159;-70
2021/05/22 00:56:10;;;;;;;;;;;20.00;61.20;;;;;;4995859;28;1172;-70
2021/05/22 00:58:36;;;;;;;;;;;20.00;61.20;;;;;;4996013;28;1229;-70
2021/05/22 01:01:03;;;;;;;;;;;20.00;61.30;;;;;;5013550;28;1894;-70
2021/05/22 01:03:31;;;;;;;;;;;20.00;61.30;;;;;;5013870;28;1143;-70
2021/05/22 01:06:14;;;;;;;;;;;20.00;61.30;;;;;;5013335;28;1076;-70
2021/05/22 01:08:42;;;;;;;;;;;19.90;61.20;;;;;;4996132;28;1296;-70
2021/05/22 01:11:10;;;;;;;;;;;19.90;61.30;;;;;;4995137;28;1065;-70
2021/05/22 01:13:36;;;;;;;;;;;20.00;61.40;;;;;;4996117;28;1077;-70
2021/05/22 01:16:01;;;;;;;;;;;19.90;61.30;;;;;;4995656;28;1242;-70
2021/05/22 01:18:27;;;;;;;;;;;19.90;61.30;;;;;;5013550;28;1214;-70
2021/05/22 01:20:54;;;;;;;;;;;19.90;61.30;;;;;;4990908;28;1906;-70
2021/05/22 01:23:22;;;;;;;;;;;19.90;61.30;;;;;;5013788;28;1076;-70
2021/05/22 01:25:48;;;;;;;;;;;19.90;62.10;;;;;;4995846;28;1172;-70
2021/05/22 01:28:13;;;;;;;;;;;19.90;61.30;;;;;;4995711;28;1379;-70
2021/05/22 01:30:39;;;;;;;;;;;19.90;61.40;;;;;;5006211;28;1156;-70
2021/05/22 01:33:05;;;;;;;;;;;19.90;61.40;;;;;;5013363;28;1147;-70
2021/05/22 01:35:30;;;;;;;;;;;19.90;61.40;;;;;;4995434;28;1204;-70
2021/05/22 01:37:56;;;;;;;;;;;19.90;61.40;;;;;;5013120;28;1256;-70
2021/05/22 01:40:21;;;;;;;;;;;19.90;61.40;;;;;;5013183;28;1910;-70
2021/05/22 01:42:46;;;;;;;;;;;19.90;61.40;;;;;;5013245;28;1072;-69
2021/05/22 01:45:26;;;;;;;;;;;19.90;61.50;;;;;;4995121;28;1145;-70
2021/05/22 01:47:51;;;;;;;;;;;19.90;61.50;;;;;;5012970;28;1314;-70
2021/05/22 01:50:17;;;;;;;;;;;19.90;61.50;;;;;;4995588;28;1073;-70
2021/05/22 01:52:43;;;;;;;;;;;19.90;61.50;;;;;;4995384;28;1135;-70
2021/05/22 01:55:09;;;;;;;;;;;19.90;61.50;;;;;;4995229;28;1065;-70
2021/05/22 01:57:35;;;;;;;;;;;19.90;61.50;;;;;;4995317;28;1328;-70
2021/05/22 02:00:01;;;;;;;;;;;19.90;61.50;;;;;;5013091;28;1898;-70
2021/05/22 02:02:26;;;;;;;;;;;19.90;61.50;;;;;;4995518;28;1073;-70
2021/05/22 02:04:51;;;;;;;;;;;19.90;61.50;;;;;;4995191;28;1128;-70
2021/05/22 02:07:20;;;;;;;;;;;19.90;61.50;;;;;;4994990;28;1363;-70
2021/05/22 02:09:47;;;;;;;;;;;19.90;61.60;;;;;;4995489;28;1104;-70
2021/05/22 02:12:12;;;;;;;;;;;19.90;62.30;;;;;;5012854;28;1182;-70
2021/05/22 02:14:38;;;;;;;;;;;19.90;61.60;;;;;;4995250;28;1214;-69
2021/05/22 02:17:09;;;;;;;;;;;19.90;61.60;;;;;;5012788;28;1258;-70
2021/05/22 02:19:35;;;;;;;;;;;19.90;61.60;;;;;;5012535;28;1961;-70
2021/05/22 02:22:01;;;;;;;;;;;19.90;61.60;;;;;;4974635;28;1349;-70
2021/05/22 02:24:26;;;;;;;;;;;19.90;61.60;;;;;;4999091;28;1128;-69
2021/05/22 02:27:01;;;;;;;;;;;19.90;61.60;;;;;;5016279;28;1283;-70
2021/05/22 02:29:26;;;;;;;;;;;19.90;61.70;;;;;;4999608;28;1179;-70
2021/05/22 02:31:52;;;;;;;;;;;19.90;61.60;;;;;;5016469;28;1116;-70
2021/05/22 02:34:18;;;;;;;;;;;19.80;61.60;;;;;;4998718;28;1387;-70
2021/05/22 02:36:43;;;;;;;;;;;19.90;61.60;;;;;;4998862;28;1184;-70
2021/05/22 02:39:09;;;;;;;;;;;19.90;61.70;;;;;;5016338;28;1977;-70
2021/05/22 02:41:34;;;;;;;;;;;19.80;61.60;;;;;;5016253;28;1128;-70
2021/05/22 02:44:00;;;;;;;;;;;19.90;61.70;;;;;;4998782;28;1163;-70
2021/05/22 02:46:25;;;;;;;;;;;19.90;61.70;;;;;;4998363;28;1046;-71
2021/05/22 02:48:51;;;;;;;;;;;19.90;61.70;;;;;;4998583;28;1226;-70
2021/05/22 02:51:16;;;;;;;;;;;19.90;61.80;;;;;;4998608;28;1160;-70
2021/05/22 02:53:42;;;;;;;;;;;19.90;61.80;;;;;;4998583;28;1077;-70
2021/05/22 02:56:07;;;;;;;;;;;19.90;61.80;;;;;;4998117;28;1073;-70
2021/05/22 02:58:33;;;;;;;;;;;19.90;61.80;;;;;;4998408;28;1264;-70
2021/05/22 03:00:59;;;;;;;;;;;19.90;61.80;;;;;;4998274;28;1898;-70
2021/05/22 03:03:24;;;;;;;;;;;19.90;61.80;;;;;;5015809;28;986;-70
2021/05/22 03:05:49;;;;;;;;;;;19.90;61.80;;;;;;5015483;28;1366;-70
2021/05/22 03:08:15;;;;;;;;;;;19.90;61.80;;;;;;4998189;28;1214;-70
2021/05/22 03:10:40;;;;;;;;;;;19.80;61.80;;;;;;5015744;28;1207;-70
2021/05/22 03:13:06;;;;;;;;;;;19.80;61.80;;;;;;4998588;28;1097;-70
2021/05/22 03:15:31;;;;;;;;;;;19.90;61.80;;;;;;5015399;28;1288;-70
2021/05/22 03:17:57;;;;;;;;;;;19.80;61.70;;;;;;5015583;28;1171;-70
2021/05/22 03:20:22;;;;;;;;;;;19.80;61.70;;;;;;5014901;28;1973;-70
2021/05/22 03:22:48;;;;;;;;;;;19.80;61.80;;;;;;5015195;28;1068;-70
2021/05/22 03:25:13;;;;;;;;;;;19.80;61.80;;;;;;5014612;28;1139;-70
2021/05/22 03:27:39;;;;;;;;;;;19.80;61.80;;;;;;5014672;28;1347;-70
2021/05/22 03:30:05;;;;;;;;;;;19.80;61.80;;;;;;5014242;28;1088;-70
2021/05/22 03:32:30;;;;;;;;;;;19.80;61.80;;;;;;5014640;28;1061;-70
2021/05/22 03:34:56;;;;;;;;;;;19.80;61.80;;;;;;5015000;28;1057;-70
2021/05/22 03:37:21;;;;;;;;;;;19.80;61.80;;;;;;5015164;28;1216;-70
2021/05/22 03:39:47;;;;;;;;;;;19.80;61.50;;;;;;5015250;28;1898;-70
2021/05/22 03:42:12;;;;;;;;;;;19.90;61.50;;;;;;5015187;28;1155;-70
2021/05/22 03:44:37;;;;;;;;;;;19.90;61.50;;;;;;5014911;28;1171;-70
2021/05/22 03:47:03;;;;;;;;;;;19.90;61.40;;;;;;5015010;28;1288;-70
2021/05/22 03:49:28;;;;;;;;;;;20.00;61.40;;;;;;4997559;28;1148;-70
2021/05/22 03:51:54;;;;;;;;;;;20.00;61.20;;;;;;5015136;28;1061;-70
2021/05/22 03:54:20;;;;;;;;;;;20.10;61.10;;;;;;4997391;28;1124;-70
2021/05/22 03:56:45;;;;;;;;;;;20.20;60.90;;;;;;5014746;28;1084;-70
2021/05/22 03:59:11;;;;;;;;;;;20.30;60.80;;;;;;5014661;28;1899;-70
2021/05/22 04:01:36;;;;;;;;;;;20.40;60.50;;;;;;5014727;28;1065;-70
2021/05/22 04:04:03;;;;;;;;;;;20.40;60.20;;;;;;5014635;28;1124;-70
2021/05/22 04:06:28;;;;;;;;;;;20.50;60.00;;;;;;5014669;28;1052;-70
2021/05/22 04:08:53;;;;;;;;;;;20.60;59.90;;;;;;4997082;28;1229;-70
2021/05/22 04:11:19;;;;;;;;;;;20.60;59.70;;;;;;5014618;28;1135;-70
2021/05/22 04:13:44;;;;;;;;;;;20.70;59.50;;;;;;5014770;28;1025;-70
2021/05/22 04:16:10;;;;;;;;;;;20.70;59.40;;;;;;5014286;28;1069;-70
2021/05/22 04:18:35;;;;;;;;;;;20.80;59.30;;;;;;5014187;28;1217;-70
2021/05/22 04:21:01;;;;;;;;;;;20.80;59.20;;;;;;5014351;28;1903;-70
2021/05/22 04:23:26;;;;;;;;;;;20.90;59.10;;;;;;5014302;28;1077;-70
2021/05/22 04:25:51;;;;;;;;;;;20.90;59.00;;;;;;5014165;28;1246;-70
2021/05/22 04:28:17;;;;;;;;;;;20.90;58.90;;;;;;5014246;28;1282;-70
2021/05/22 04:30:42;;;;;;;;;;;21.00;58.90;;;;;;4996768;28;1144;-70
2021/05/22 04:33:08;;;;;;;;;;;21.00;58.80;;;;;;5014113;28;1085;-70
2021/05/22 04:35:33;;;;;;;;;;;21.10;58.80;;;;;;5013873;28;1199;-70
2021/05/22 04:37:59;;;;;;;;;;;21.10;58.80;;;;;;5014111;28;1263;-70
2021/05/22 04:40:24;;;;;;;;;;;21.10;58.70;;;;;;5014086;28;1918;-70
2021/05/22 04:42:50;;;;;;;;;;;21.10;58.60;;;;;;5014365;28;1132;-70
2021/05/22 04:45:15;;;;;;;;;;;21.10;58.60;;;;;;4995214;28;1168;-70
2021/05/22 04:47:41;;;;;;;;;;;21.20;58.60;;;;;;5013823;28;1346;-70
2021/05/22 04:50:07;;;;;;;;;;;21.20;58.50;;;;;;5014030;28;1116;-70
2021/05/22 04:52:33;;;;;;;;;;;21.20;58.50;;;;;;4996246;28;1085;-70
2021/05/22 04:54:58;;;;;;;;;;;21.20;58.40;;;;;;5013624;28;1276;-70
2021/05/22 04:57:24;;;;;;;;;;;21.20;58.40;;;;;;5013718;28;1268;-70
2021/05/22 04:59:49;;;;;;;;;;;21.30;58.40;;;;;;5013861;28;1964;-70
2021/05/22 05:02:14;;;;;;;;;;;21.30;58.40;;;;;;5013517;28;1068;-70
2021/05/22 05:04:40;;;;;;;;;;;21.30;58.30;;;;;;5013522;28;1183;-70
2021/05/22 05:07:05;;;;;;;;;;;21.30;58.90;;;;;;5013537;28;1678;-70
2021/05/22 05:09:32;;;;;;;;;;;21.30;58.30;;;;;;4996127;28;1089;-70
2021/05/22 05:11:57;;;;;;;;;;;21.30;58.30;;;;;;4996231;28;1069;-70
2021/05/22 05:14:22;;;;;;;;;;;21.30;58.30;;;;;;4995787;28;1673;-70
2021/05/22 05:16:48;;;;;;;;;;;21.30;58.30;;;;;;5013058;28;1053;-70
2021/05/22 05:19:13;;;;;;;;;;;21.30;58.20;;;;;;5013261;28;1965;-70
2021/05/22 05:21:39;;;;;;;;;;;21.40;58.30;;;;;;5013323;28;1152;-70
2021/05/22 05:24:04;;;;;;;;;;;21.40;58.30;;;;;;5013362;28;1199;-70
2021/05/22 05:26:29;;;;;;;;;;;21.40;58.20;;;;;;5013364;28;1135;-70
2021/05/22 05:28:55;;;;;;;;;;;21.40;58.30;;;;;;5013179;28;1377;-70
2021/05/22 05:31:20;;;;;;;;;;;21.40;58.20;;;;;;5013075;28;1195;-70
2021/05/22 05:33:46;;;;;;;;;;;21.40;58.20;;;;;;5013309;28;1156;-70
2021/05/22 05:36:11;;;;;;;;;;;21.40;58.30;;;;;;5013095;28;1060;-70
2021/05/22 05:38:37;;;;;;;;;;;21.40;58.30;;;;;;5013386;28;1350;-70
2021/05/22 05:41:02;;;;;;;;;;;21.40;58.30;;;;;;4995762;28;1915;-70
2021/05/22 05:43:28;;;;;;;;;;;21.40;58.40;;;;;;5013481;28;1041;-70
2021/05/22 05:45:53;;;;;;;;;;;21.40;58.40;;;;;;4995145;28;1089;-70
2021/05/22 05:48:18;;;;;;;;;;;21.30;58.30;;;;;;5013087;28;1374;-70
2021/05/22 05:50:44;;;;;;;;;;;21.30;58.30;;;;;;5013179;28;1120;-70
2021/05/22 05:53:09;;;;;;;;;;;21.30;58.40;;;;;;5013121;28;1235;-70
2021/05/22 05:55:35;;;;;;;;;;;21.30;58.50;;;;;;5012732;28;1117;-70
2021/05/22 05:58:00;;;;;;;;;;;21.30;58.50;;;;;;5017098;28;1204;-70
2021/05/22 06:00:25;;;;;;;;;;;21.30;58.50;;;;;;4999452;28;1963;-70
2021/05/22 06:02:51;;;;;;;;;;;21.30;58.60;;;;;;5017040;28;1104;-71
2021/05/22 06:05:17;;;;;;;;;;;21.30;58.60;;;;;;5016815;28;1139;-71
2021/05/22 06:07:42;;;;;;;;;;;21.30;58.70;;;;;;5016881;28;1265;-70
2021/05/22 06:10:08;;;;;;;;;;;21.20;58.60;;;;;;4999430;28;1156;-71
2021/05/22 06:12:33;;;;;;;;;;;21.20;58.30;;;;;;4999257;28;1073;-71
2021/05/22 06:15:09;;;;;;;;;;;21.20;57.60;;;;;;5016629;28;1197;-70
2021/05/22 06:17:35;;;;;;;;;;;21.10;57.50;;;;;;5015712;28;1296;-70
2021/05/22 06:20:00;;;;;;;;;;;21.00;57.30;;;;;;5016768;28;1922;-68
2021/05/22 06:22:26;;;;;;;;;;;21.00;57.00;;;;;;5007433;28;1854;-72
2021/05/22 06:24:51;;;;;;;;;;;21.00;57.20;;;;;;5010146;28;1923;-71
2021/05/22 06:27:17;;;;;;;;;;;21.00;57.70;;;;;;5016141;28;1512;-71
2021/05/22 06:29:42;;;;;;;;;;;20.90;56.90;;;;;;5016131;28;1150;-68
2021/05/22 06:32:07;;;;;;;;;;;20.90;57.00;;;;;;5016393;28;1183;-69
2021/05/22 06:34:34;;;;;;;;;;;20.80;56.90;;;;;;5016461;28;1049;-71
2021/05/22 06:36:59;;;;;;;;;;;20.80;57.00;;;;;;5016159;28;1287;-68
2021/05/22 06:39:25;;;;;;;;;;;20.80;56.90;;;;;;5016718;28;1906;-69
2021/05/22 06:41:50;;;;;;;;;;;20.70;57.00;;;;;;5016521;28;1148;-69
2021/05/22 06:44:24;;;;;;;;;;;20.70;57.00;;;;;;5016021;28;1139;-70
2021/05/22 06:46:50;;;;;;;;;;;20.70;57.10;;;;;;5016082;28;1192;-70
2021/05/22 06:49:16;;;;;;;;;;;20.70;57.10;;;;;;5016276;28;1084;-70
2021/05/22 06:51:41;;;;;;;;;;;20.70;57.10;;;;;;4997236;28;1255;-71
2021/05/22 06:54:07;;;;;;;;;;;20.60;57.00;;;;;;4998674;28;1304;-69
2021/05/22 06:56:32;;;;;;;;;;;20.60;57.10;;;;;;4998299;28;1133;-70
2021/05/22 06:58:57;;;;;;;;;;;20.60;56.90;;;;;;5015772;28;1267;-70
2021/05/22 07:01:23;;;;;;;;;;;20.60;57.00;;;;;;5015811;28;1965;-70
2021/05/22 07:03:48;;;;;;;;;;;20.60;57.10;;;;;;5016068;28;1061;-70
2021/05/22 07:06:14;;;;;;;;;;;20.60;57.10;;;;;;5015594;28;1140;-70
2021/05/22 07:08:39;;;;;;;;;;;20.60;57.20;;;;;;4993552;28;1463;-69
2021/05/22 07:11:05;;;;;;;;;;;20.60;57.30;;;;;;4967428;28;1101;-70
2021/05/22 07:13:30;;;;;;;;;;;20.60;57.30;;;;;;4993375;28;1406;-70
2021/05/22 07:15:55;;;;;;;;;;;20.60;57.70;;;;;;4978791;28;1461;-71
2021/05/22 07:18:21;;;;;;;;;;;20.70;58.60;;;;;;5015298;28;1460;-71
2021/05/22 07:20:46;;;;;;;;;;;20.60;58.80;;;;;;5015059;28;1910;-70
2021/05/22 07:23:12;;;;;;;;;;;20.70;59.10;;;;;;5015159;28;1393;-70
2021/05/22 07:25:38;;;;;;;;;;;20.70;59.10;;;;;;4997165;28;1628;-71
2021/05/22 07:28:03;;;;;;;;;;;20.70;59.00;;;;;;5012055;28;1373;-71
2021/05/22 07:30:29;;;;;;;;;;;20.70;59.10;;;;;;4999725;28;1190;-70
2021/05/22 07:32:54;;;;;;;;;;;20.70;59.20;;;;;;4996211;28;1449;-70
2021/05/22 07:35:20;;;;;;;;;;;20.70;59.30;;;;;;5015331;28;1325;-70
2021/05/22 07:37:45;;;;;;;;;;;20.70;59.40;;;;;;5015174;28;1275;-70
2021/05/22 07:40:11;;;;;;;;;;;20.70;59.50;;;;;;5015134;28;1906;-70
2021/05/22 07:42:36;;;;;;;;;;;20.80;59.60;;;;;;4997581;28;1184;-70
2021/05/22 07:45:02;;;;;;;;;;;20.70;59.60;;;;;;5014790;28;1101;-70
2021/05/22 07:47:27;;;;;;;;;;;20.80;59.70;;;;;;5015137;28;1269;-70
2021/05/22 07:49:53;;;;;;;;;;;20.70;60.00;;;;;;5015062;28;1703;-70
2021/05/22 07:52:19;;;;;;;;;;;20.80;59.80;;;;;;5015208;28;1100;-70
2021/05/22 07:54:44;;;;;;;;;;;20.70;59.80;;;;;;4997902;28;1132;-71
2021/05/22 07:57:10;;;;;;;;;;;20.80;59.90;;;;;;5014933;28;1339;-70
2021/05/22 07:59:36;;;;;;;;;;;20.80;60.00;;;;;;4997486;28;1898;-70
2021/05/22 08:02:01;;;;;;;;;;;20.80;60.10;;;;;;4997500;28;1139;-71
2021/05/22 08:04:26;;;;;;;;;;;20.80;60.20;;;;;;4997096;28;1148;-70
2021/05/22 08:06:52;;;;;;;;;;;20.80;60.20;;;;;;5014581;28;1287;-70
2021/05/22 08:09:17;;;;;;;;;;;20.80;60.30;;;;;;4977727;28;1410;-69
2021/05/22 08:11:43;;;;;;;;;;;20.70;60.30;;;;;;4987304;28;1117;-70
2021/05/22 08:14:08;;;;;;;;;;;20.80;60.40;;;;;;5014363;28;1108;-70
2021/05/22 08:16:35;;;;;;;;;;;20.80;60.50;;;;;;5013132;28;1100;-69
2021/05/22 08:19:00;;;;;;;;;;;20.80;60.60;;;;;;5014216;28;1212;-70
2021/05/22 08:21:26;;;;;;;;;;;20.80;60.60;;;;;;5009697;28;1906;-70
2021/05/22 08:23:51;;;;;;;;;;;20.80;60.60;;;;;;5014270;28;1073;-70
2021/05/22 08:26:17;;;;;;;;;;;20.80;60.80;;;;;;5013989;28;1033;-70
2021/05/22 08:28:42;;;;;;;;;;;20.80;60.90;;;;;;5030870;23;2234;-72
2021/05/22 08:31:08;;;;;;;;;;;20.80;60.80;;;;;;5006803;28;2071;-71
2021/05/22 08:33:33;;;;;;;;;;;20.80;60.90;;;;;;5012053;28;1627;-71
2021/05/22 08:35:59;;;;;;;;;;;20.80;60.90;;;;;;5009617;28;1637;-72
2021/05/22 08:38:24;;;;;;;;;;;20.80;61.00;;;;;;5011914;28;1581;-71
2021/05/22 08:40:50;;;;;;;;;;;20.80;61.00;;;;;;5013030;28;1907;-71
2021/05/22 08:43:15;;;;;;;;;;;20.80;61.10;;;;;;5014108;28;1362;-71
2021/05/22 08:45:40;;;;;;;;;;;20.80;61.30;;;;;;5013732;28;1415;-71
2021/05/22 08:48:06;;;;;;;;;;;20.80;61.30;;;;;;5012610;28;1591;-72
2021/05/22 08:50:32;;;;;;;;;;;20.80;61.40;;;;;;5012775;28;1176;-71
2021/05/22 08:52:57;;;;;;;;;;;20.80;61.40;;;;;;4996262;28;1360;-71
2021/05/22 08:55:22;;;;;;;;;;;20.80;61.40;;;;;;5012639;28;1787;-71
2021/05/22 08:57:48;;;;;;;;;;;20.80;61.50;;;;;;5013790;28;1160;-72
2021/05/22 09:00:15;;;;;;;;;;;20.80;61.50;;;;;;5014003;28;1965;-72
2021/05/22 09:02:41;;;;;;;;;;;20.80;61.60;;;;;;5012668;28;1451;-71
2021/05/22 09:05:24;;;;;;;;;;;20.80;61.60;;;;;;5012339;28;1371;-72
2021/05/22 09:07:51;;;;;;;;;;;20.80;61.60;;;;;;5012591;28;1276;-71
2021/05/22 09:10:23;;;;;;;;;;;20.80;61.60;;;;;;5012576;28;1410;-72
2021/05/22 09:12:53;;;;;;;;;;;20.80;61.70;;;;;;5012588;28;1437;-72
2021/05/22 09:15:22;;;;;;;;;;;20.80;61.70;;;;;;5012322;28;1672;-72
2021/05/22 09:17:50;;;;;;;;;;;20.80;61.80;;;;;;5012500;28;1397;-71
2021/05/22 09:20:17;;;;;;;;;;;20.80;61.80;;;;;;5013883;28;1910;-73
2021/05/22 09:22:42;;;;;;;;;;;20.80;61.90;;;;;;5013478;28;1654;-73
2021/05/22 09:25:09;;;;;;;;;;;20.80;62.10;;;;;;5013373;28;1650;-73
2021/05/22 09:27:36;;;;;;;;;;;20.80;62.10;;;;;;5013560;28;1629;-73
2021/05/22 09:30:04;;;;;;;;;;;20.80;62.10;;;;;;5013360;28;1356;-73
2021/05/22 09:32:30;;;;;;;;;;;20.80;62.20;;;;;;5012946;28;1440;-73
2021/05/22 09:34:55;;;;;;;;;;;20.80;62.20;;;;;;5012007;28;1599;-74
2021/05/22 09:37:22;;;;;;;;;;;20.80;62.20;;;;;;5013159;28;1060;-73
2021/05/22 09:39:48;;;;;;;;;;;20.80;62.30;;;;;;5013509;28;1919;-73
2021/05/22 09:42:14;;;;;;;;;;;20.80;62.30;;;;;;5012059;28;788;-72
2021/05/22 09:44:40;;;;;;;;;;;20.80;62.30;;;;;;5011898;28;1485;-74
2021/05/22 09:47:06;;;;;;;;;;;20.80;62.50;;;;;;5012030;28;1574;-72
2021/05/22 09:49:33;;;;;;;;;;;20.80;62.50;;;;;;5013168;28;1569;-72
2021/05/22 09:51:58;;;;;;;;;;;20.80;62.50;;;;;;5012062;28;1413;-72
2021/05/22 09:54:42;;;;;;;;;;;20.80;62.50;;;;;;5013169;28;1535;-73
2021/05/22 09:57:08;;;;;;;;;;;20.80;62.60;;;;;;5013182;28;1128;-73
2021/05/22 09:59:33;;;;;;;;;;;20.80;63.40;;;;;;5013105;28;1967;-72
2021/05/22 10:01:59;;;;;;;;;;;20.80;62.80;;;;;;5008598;28;1144;-72
2021/05/22 10:04:24;;;;;;;;;;;20.80;62.80;;;;;;5010712;28;1583;-73
2021/05/22 10:06:50;;;;;;;;;;;20.80;62.90;;;;;;5011844;28;1462;-72
2021/05/22 10:09:16;;;;;;;;;;;20.80;62.90;;;;;;5003492;28;2068;-72
2021/05/22 10:12:01;;;;;;;;;;;20.80;62.90;;;;;;5013207;28;1298;-72
2021/05/22 10:14:34;;;;;;;;;;;20.90;62.90;;;;;;5007952;28;1498;-73
2021/05/22 10:17:01;;;;;;;;;;;20.90;63.10;;;;;;4999346;28;1692;-73
2021/05/22 10:19:26;;;;;;;;;;;20.90;63.00;;;;;;5009336;28;1968;-73
2021/05/22 10:21:52;;;;;;;;;;;20.90;63.00;;;;;;5009567;28;1465;-73
2021/05/22 10:24:17;;;;;;;;;;;20.80;63.10;;;;;;4995439;28;1252;-72
2021/05/22 10:26:43;;;;;;;;;;;20.80;63.10;;;;;;4994894;28;1210;-72
2021/05/22 10:29:08;;;;;;;;;;;20.80;63.20;;;;;;5011716;28;1617;-72
2021/05/22 10:31:37;;;;;;;;;;;20.80;63.20;;;;;;5008655;28;1695;-73
2021/05/22 10:34:08;;;;;;;;;;;20.80;63.20;;;;;;5013032;28;1373;-73
2021/05/22 10:36:53;;;;;;;;;;;20.80;63.20;;;;;;5012820;28;1469;-72
2021/05/22 10:39:41;;;;;;;;;;;20.80;63.10;;;;;;5008457;28;1977;-73
2021/05/22 10:42:07;;;;;;;;;;;20.80;63.30;;;;;;5001050;28;1366;-72
2021/05/22 10:44:35;;;;;;;;;;;20.80;63.80;;;;;;5016420;28;1665;-73
2021/05/22 10:47:17;;;;;;;;;;;20.80;64.00;;;;;;5011809;28;1457;-73
2021/05/22 10:49:49;;;;;;;;;;;20.90;64.00;;;;;;5012647;28;1497;-73
2021/05/22 10:52:15;;;;;;;;;;;20.80;64.00;;;;;;5015232;28;1719;-74
2021/05/22 10:55:00;;;;;;;;;;;20.90;64.10;;;;;;5014826;28;1523;-74
2021/05/22 10:57:26;;;;;;;;;;;20.90;64.10;;;;;;5016373;28;1356;-73
2021/05/22 11:00:10;;;;;;;;;;;20.90;64.20;;;;;;5016177;28;1898;-73
2021/05/22 11:02:39;;;;;;;;;;;20.90;64.30;;;;;;5016185;28;1366;-71
2021/05/22 11:05:29;;;;;;;;;;;20.90;64.30;;;;;;5014884;28;1859;-72
2021/05/22 11:08:03;;;;;;;;;;;20.80;64.50;;;;;;5015181;28;1415;-73
2021/05/22 11:10:33;;;;;;;;;;;20.90;64.50;;;;;;5015498;28;1397;-73
2021/05/22 11:12:59;;;;;;;;;;;20.90;64.50;;;;;;5015866;28;1402;-73
2021/05/22 11:15:36;;;;;;;;;;;20.90;64.40;;;;;;5015517;28;1230;-73
2021/05/22 11:18:02;;;;;;;;;;;20.90;64.40;;;;;;5015739;28;1398;-72
2021/05/22 11:20:27;;;;;;;;;;;20.90;64.50;;;;;;5014332;28;1930;-73
2021/05/22 11:22:55;;;;;;;;;;;20.90;64.40;;;;;;5015209;28;1210;-74
2021/05/22 11:25:21;;;;;;;;;;;20.90;64.40;;;;;;5012975;28;1317;-73
2021/05/22 11:27:47;;;;;;;;;;;20.90;64.40;;;;;;5015495;28;1364;-73
2021/05/22 11:30:12;;;;;;;;;;;20.90;64.40;;;;;;5013992;28;2357;-72
2021/05/22 11:32:57;;;;;;;;;;;20.90;64.40;;;;;;5004787;28;2087;-72
2021/05/22 11:35:32;;;;;;;;;;;20.90;64.40;;;;;;5008484;28;1588;-70
2021/05/22 11:38:13;;;;;;;;;;;20.90;64.20;;;;;;5015366;28;1556;-70
2021/05/22 11:40:38;;;;;;;;;;;20.90;64.20;;;;;;5015305;28;1907;-70
2021/05/22 11:43:13;;;;;;;;;;;21.00;64.20;;;;;;5014767;28;1419;-71
2021/05/22 11:45:38;;;;;;;;;;;21.00;64.00;;;;;;5014172;28;1331;-71
2021/05/22 11:48:22;;;;;;;;;;;21.00;64.00;;;;;;5014887;28;1387;-72
2021/05/22 11:50:47;;;;;;;;;;;21.00;64.70;;;;;;5014353;28;1854;-71
2021/05/22 11:53:13;;;;;;;;;;;21.00;63.90;;;;;;5014157;28;1359;-71
2021/05/22 11:55:38;;;;;;;;;;;21.00;63.90;;;;;;5006640;28;1619;-70
2021/05/22 11:58:04;;;;;;;;;;;21.00;63.90;;;;;;5012421;28;1485;-71
2021/05/22 12:00:30;;;;;;;;;;;21.00;63.80;;;;;;5013950;28;1911;-71
2021/05/22 12:02:55;;;;;;;;;;;21.00;63.80;;;;;;5013499;28;1216;-72
2021/05/22 12:05:20;;;;;;;;;;;21.00;64.00;;;;;;5012825;28;1088;-72
2021/05/22 12:07:46;;;;;;;;;;;21.00;62.10;;;;;;5013433;28;1077;-73
2021/05/22 12:10:12;;;;;;;;;;;20.90;57.80;;;;;;5014676;28;1225;-72
2021/05/22 12:12:38;;;;;;;;;;;20.90;56.70;;;;;;5013372;28;1340;-72
2021/05/22 12:15:03;;;;;;;;;;;20.80;55.60;;;;;;5014477;28;1308;-72
2021/05/22 12:17:29;;;;;;;;;;;20.80;54.90;;;;;;5007728;28;1165;-73
2021/05/22 12:19:55;;;;;;;;;;;20.70;54.20;;;;;;5006083;28;1903;-73
2021/05/22 12:22:27;;;;;;;;;;;20.70;53.60;;;;;;5007379;28;1601;-72
2021/05/22 12:24:56;;;;;;;;;;;20.60;53.50;;;;;;5008387;28;1177;-72
2021/05/22 12:27:21;;;;;;;;;;;20.60;52.20;;;;;;5009871;28;1198;-72
2021/05/22 12:29:47;;;;;;;;;;;20.50;51.20;;;;;;5005161;28;1282;-72
2021/05/22 12:32:13;;;;;;;;;;;20.50;51.70;;;;;;5009675;28;1080;-72
2021/05/22 12:34:38;;;;;;;;;;;20.50;51.30;;;;;;5003477;28;1107;-72
2021/05/22 12:37:04;;;;;;;;;;;20.40;51.10;;;;;;5011952;28;1064;-72
2021/05/22 12:39:34;;;;;;;;;;;20.40;51.80;;;;;;5012940;28;1906;-72
2021/05/22 12:41:59;;;;;;;;;;;20.40;52.20;;;;;;5012781;28;1132;-72
2021/05/22 12:44:25;;;;;;;;;;;20.40;52.00;;;;;;5012791;28;1323;-72
2021/05/22 12:46:57;;;;;;;;;;;20.40;51.90;;;;;;5013342;28;1123;-72
2021/05/22 12:49:22;;;;;;;;;;;20.40;51.70;;;;;;5013980;28;1355;-72
2021/05/22 12:51:58;;;;;;;;;;;20.40;51.20;;;;;;5013891;28;1242;-72
2021/05/22 12:54:30;;;;;;;;;;;20.40;51.20;;;;;;5012734;28;1124;-73
2021/05/22 12:56:59;;;;;;;;;;;20.40;51.30;;;;;;5012564;28;1088;-72
2021/05/22 12:59:25;;;;;;;;;;;20.40;51.40;;;;;;5012300;28;1875;-72
2021/05/22 13:02:09;;;;;;;;;;;20.30;51.70;;;;;;5012654;28;1156;-72
2021/05/22 13:04:35;;;;;;;;;;;20.30;51.80;;;;;;5013395;28;1140;-72
2021/05/22 13:07:00;;;;;;;;;;;20.30;52.10;;;;;;5012687;28;1091;-72
2021/05/22 13:09:25;;;;;;;;;;;20.30;52.70;;;;;;5013516;28;1274;-74
2021/05/22 13:11:58;;;;;;;;;;;20.30;53.20;;;;;;5013415;28;1127;-71
2021/05/22 13:14:23;;;;;;;;;;;20.30;52.90;;;;;;5010953;28;1914;-74
2021/05/22 13:16:58;;;;;;;;;;;20.30;53.00;;;;;;5008702;28;1160;-74
2021/05/22 13:19:59;;;;;;;;;;;20.30;53.10;;;;;;5011745;28;1961;-74
2021/05/22 13:22:31;;;;;;;;;;;20.20;52.90;;;;;;4952465;29;1503;-74
2021/05/22 13:24:57;;;;;;;;;;;20.30;52.50;;;;;;5002371;28;1195;-74
2021/05/22 13:27:22;;;;;;;;;;;20.30;52.40;;;;;;5013150;28;1132;-74
2021/05/22 13:29:51;;;;;;;;;;;20.20;52.30;;;;;;4995398;28;1218;-73
2021/05/22 13:32:17;;;;;;;;;;;20.20;52.20;;;;;;5013367;28;1112;-74
2021/05/22 13:34:43;;;;;;;;;;;20.30;52.20;;;;;;5003604;28;1243;-76
2021/05/22 13:37:08;;;;;;;;;;;20.20;52.20;;;;;;5003719;28;1112;-76
2021/05/22 13:39:34;;;;;;;;;;;20.20;52.30;;;;;;5004335;28;1902;-74
2021/05/22 13:41:59;;;;;;;;;;;20.20;52.40;;;;;;5005962;28;1249;-76
2021/05/22 13:44:26;;;;;;;;;;;20.20;52.50;;;;;;5004679;28;1371;-76
2021/05/22 13:46:52;;;;;;;;;;;20.20;52.30;;;;;;4986712;28;1351;-76
2021/05/22 13:49:18;;;;;;;;;;;20.20;52.40;;;;;;5003229;28;1740;-76
2021/05/22 13:51:45;;;;;;;;;;;20.20;52.30;;;;;;5009997;28;1095;-74
2021/05/22 13:54:12;;;;;;;;;;;20.20;52.00;;;;;;5012090;28;1203;-74
2021/05/22 13:56:37;;;;;;;;;;;20.20;52.00;;;;;;5012574;28;996;-73
2021/05/22 13:59:03;;;;;;;;;;;20.20;51.70;;;;;;5012871;28;1276;-74
2021/05/22 14:01:30;;;;;;;;;;;20.20;51.20;;;;;;4995244;28;1964;-74
2021/05/22 14:03:56;;;;;;;;;;;20.10;51.20;;;;;;5011624;28;1143;-74
2021/05/22 14:06:22;;;;;;;;;;;20.20;51.30;;;;;;5011424;28;1359;-73
2021/05/22 14:08:47;;;;;;;;;;;20.20;51.30;;;;;;5011454;28;1277;-73
2021/05/22 14:11:13;;;;;;;;;;;20.10;51.50;;;;;;5011779;28;1346;-74
2021/05/22 14:13:38;;;;;;;;;;;20.10;51.70;;;;;;5011974;28;1728;-73
2021/05/22 14:16:05;;;;;;;;;;;20.10;51.50;;;;;;5011596;28;1827;-73
2021/05/22 14:18:31;;;;;;;;;;;20.20;51.70;;;;;;5015710;28;1360;-73
2021/05/22 14:20:56;;;;;;;;;;;20.10;51.60;;;;;;5015541;28;1962;-72
2021/05/22 14:23:22;;;;;;;;;;;20.10;51.40;;;;;;5016718;28;1060;-71
2021/05/22 14:25:47;;;;;;;;;;;20.10;51.40;;;;;;5016718;28;1186;-72
2021/05/22 14:28:13;;;;;;;;;;;20.10;51.40;;;;;;5012502;28;2042;-72